createdAt,value
2019-06-07T00:00:29.605Z,8.43
2019-06-07T00:02:39.545Z,6.80
2019-06-07T00:05:14.952Z,4.23
2019-06-07T00:07:42.097Z,5.37
2019-06-07T00:10:15.336Z,6.53
2019-06-07T00:12:40.610Z,6.00
2019-06-07T00:15:11.706Z,4.60
2019-06-07T00:17:39.715Z,6.80
2019-06-07T00:20:09.371Z,5.03
2019-06-07T00:22:38.211Z,6.33
2019-06-07T00:25:10.005Z,7.60
2019-06-07T00:27:37.108Z,6.40
2019-06-07T00:30:33.801Z,7.13
2019-06-07T00:32:37.845Z,7.47
2019-06-07T00:35:09.201Z,8.23
2019-06-07T00:37:37.752Z,6.77
2019-06-07T00:40:18.623Z,5.23
2019-06-07T00:42:36.287Z,11.93
2019-06-07T00:45:06.435Z,8.83
2019-06-07T00:47:34.841Z,6.30
2019-06-07T00:50:03.963Z,6.87
2019-06-07T00:55:02.632Z,6.97
2019-06-07T00:57:30.989Z,8.10
2019-06-07T00:59:59.466Z,11.50
2019-06-07T01:02:31.273Z,10.73
2019-06-07T01:04:57.956Z,8.23
2019-06-07T01:07:26.297Z,10.73
2019-06-07T01:09:54.718Z,12.80
2019-06-07T01:12:24.596Z,9.70
2019-06-07T01:14:53.161Z,9.87
2019-06-07T01:17:39.839Z,12.87
2019-06-07T01:19:56.530Z,11.13
2019-06-07T01:22:29.071Z,11.47
2019-06-07T01:24:54.996Z,10.60
2019-06-07T01:27:25.448Z,10.47
2019-06-07T01:29:53.442Z,13.10
2019-06-07T01:32:24.689Z,11.63
2019-06-07T01:34:51.955Z,11.60
2019-06-07T01:37:25.042Z,14.30
2019-06-07T01:39:50.421Z,13.10
2019-06-07T01:42:20.431Z,12.07
2019-06-07T01:44:48.876Z,12.97
2019-06-07T01:47:17.864Z,16.43
2019-06-07T01:49:46.873Z,13.63
2019-06-07T01:52:16.474Z,13.60
2019-06-07T01:54:58.455Z,13.37
2019-06-07T01:57:31.071Z,15.03
2019-06-07T01:59:45.431Z,16.10
2019-06-07T02:02:13.849Z,15.80
2019-06-07T02:04:42.272Z,15.07
2019-06-07T02:07:10.659Z,14.17
2019-06-07T02:09:39.082Z,14.90
2019-06-07T02:12:25.218Z,19.00
2019-06-07T02:14:37.688Z,19.03
2019-06-07T02:17:06.108Z,17.07
2019-06-07T02:19:34.497Z,20.70
2019-06-07T02:22:02.964Z,18.40
2019-06-07T02:24:35.301Z,19.57
2019-06-07T02:27:01.402Z,19.97
2019-06-07T02:29:32.930Z,20.43
2019-06-07T02:31:59.852Z,18.83
2019-06-07T02:34:35.251Z,19.13
2019-06-07T02:36:58.303Z,20.43
2019-06-07T02:39:28.844Z,20.90
2019-06-07T02:41:56.948Z,19.43
2019-06-07T02:44:28.587Z,20.43
2019-06-07T02:46:55.398Z,22.73
2019-06-07T02:49:25.180Z,22.20
2019-06-07T02:51:53.932Z,20.33
2019-06-07T02:54:23.970Z,21.17
2019-06-07T02:56:58.818Z,19.30
2019-06-07T02:59:52.677Z,21.73
2019-06-07T03:01:52.573Z,23.10
2019-06-07T03:04:21.069Z,21.77
2019-06-07T03:06:50.143Z,22.20
2019-06-07T03:09:18.885Z,23.67
2019-06-07T03:11:47.697Z,24.93
2019-06-07T03:14:16.644Z,21.93
2019-06-07T03:16:46.690Z,22.93
2019-06-07T03:19:19.375Z,22.30
2019-06-07T03:21:47.755Z,22.47
2019-06-07T03:24:16.232Z,23.30
2019-06-07T03:27:31.814Z,25.63
2019-06-07T03:29:14.761Z,24.67
2019-06-07T03:31:47.534Z,23.87
2019-06-07T03:34:13.211Z,23.63
2019-06-07T03:36:41.616Z,23.27
2019-06-07T03:39:10.027Z,24.37
2019-06-07T03:41:50.177Z,27.00
2019-06-07T03:44:08.487Z,23.67
2019-06-07T03:46:38.994Z,25.00
2019-06-07T03:49:06.957Z,25.33
2019-06-07T03:51:39.276Z,23.87
2019-06-07T03:54:05.504Z,23.63
2019-06-07T03:56:36.032Z,21.93
2019-06-07T03:59:04.007Z,24.63
2019-06-07T04:01:34.733Z,23.07
2019-06-07T04:04:02.472Z,23.10
2019-06-07T04:06:32.578Z,27.20
2019-06-07T04:09:01.029Z,24.83
2019-06-07T04:11:30.071Z,21.50
2019-06-07T04:13:58.691Z,25.37
2019-06-07T04:16:28.836Z,23.87
2019-06-07T04:18:57.161Z,22.00
2019-06-07T04:21:25.603Z,20.70
2019-06-07T04:23:54.005Z,22.77
2019-06-07T04:26:22.379Z,21.23
2019-06-07T04:31:22.178Z,20.90
2019-06-07T04:33:50.856Z,21.80
2019-06-07T04:36:38.915Z,22.40
2019-06-07T04:38:50.028Z,20.63
2019-06-07T04:41:19.067Z,21.43
2019-06-07T04:43:47.499Z,20.07
2019-06-07T04:46:15.981Z,19.70
2019-06-07T04:48:44.383Z,21.73
2019-06-07T04:51:14.579Z,20.67
2019-06-07T04:53:43.501Z,21.53
2019-06-07T04:56:12.005Z,18.43
2019-06-07T04:58:41.322Z,18.33
2019-06-07T05:01:26.376Z,17.73
2019-06-07T05:03:44.074Z,18.80
2019-06-07T05:06:10.098Z,16.97
2019-06-07T05:08:42.536Z,17.27
2019-06-07T05:11:08.545Z,19.63
2019-06-07T05:13:39.036Z,16.13
2019-06-07T05:16:07.012Z,18.07
2019-06-07T05:18:36.356Z,17.80
2019-06-07T05:21:05.468Z,20.07
2019-06-07T05:26:03.911Z,18.83
2019-06-07T05:28:32.658Z,17.70
2019-06-07T05:31:05.039Z,17.80
2019-06-07T05:33:31.810Z,19.13
2019-06-07T05:36:01.228Z,18.13
2019-06-07T05:38:31.015Z,19.47
2019-06-07T05:40:59.644Z,20.70
2019-06-07T05:43:29.200Z,18.27
2019-06-07T05:45:57.645Z,18.67
2019-06-07T05:48:26.876Z,18.60
2019-06-07T05:50:57.215Z,17.73
2019-06-07T05:53:25.527Z,18.57
2019-06-07T05:55:54.172Z,20.33
2019-06-07T05:58:24.125Z,19.03
2019-06-07T06:00:52.531Z,17.13
2019-06-07T06:03:20.938Z,20.53
2019-06-07T06:05:55.031Z,16.83
2019-06-07T06:08:19.428Z,17.13
2019-06-07T06:10:48.904Z,15.33
2019-06-07T06:13:17.560Z,14.53
2019-06-07T06:16:00.437Z,13.83
2019-06-07T06:18:16.012Z,13.60
2019-06-07T06:23:14.542Z,16.87
2019-06-07T06:25:50.984Z,12.83
2019-06-07T06:28:13.878Z,12.80
2019-06-07T06:30:45.682Z,11.80
2019-06-07T06:33:30.731Z,12.33
2019-06-07T06:35:47.507Z,12.80
2019-06-07T06:38:13.539Z,12.83
2019-06-07T06:40:45.122Z,10.63
2019-06-07T06:43:12.008Z,10.67
2019-06-07T06:45:40.419Z,11.13
2019-06-07T06:48:08.802Z,11.87
2019-06-07T06:50:38.611Z,12.27
2019-06-07T06:53:07.595Z,12.27
2019-06-07T06:55:36.070Z,10.93
2019-06-07T06:58:04.491Z,11.33
2019-06-07T07:01:04.845Z,10.07
2019-06-07T07:05:53.312Z,8.53
2019-06-07T07:08:19.764Z,8.43
2019-06-07T07:10:52.090Z,9.00
2019-06-07T07:13:18.298Z,9.07
2019-06-07T07:15:50.015Z,8.30
2019-06-07T07:18:16.716Z,8.77
2019-06-07T07:20:47.252Z,9.93
2019-06-07T07:23:15.156Z,8.30
2019-06-07T07:25:46.203Z,8.23
2019-06-07T07:28:13.680Z,8.47
2019-06-07T07:30:55.385Z,10.43
2019-06-07T07:33:22.537Z,8.50
2019-06-07T07:36:10.873Z,10.40
2019-06-07T07:38:20.981Z,9.50
2019-06-07T07:41:01.880Z,7.93
2019-06-07T07:43:19.423Z,8.53
2019-06-07T07:45:55.088Z,7.77
2019-06-07T07:48:18.578Z,8.87
2019-06-07T07:50:49.650Z,8.93
2019-06-07T07:53:17.224Z,10.80
2019-06-07T07:55:49.492Z,8.10
2019-06-07T07:58:15.637Z,7.20
2019-06-07T08:01:00.707Z,8.20
2019-06-07T08:03:14.152Z,8.00
2019-06-07T08:05:45.005Z,7.87
2019-06-07T08:08:12.597Z,8.57
2019-06-07T08:10:40.976Z,7.67
2019-06-07T08:13:27.256Z,8.17
2019-06-07T08:15:39.484Z,10.17
2019-06-07T08:18:07.984Z,8.10
2019-06-07T08:20:36.352Z,8.73
2019-06-07T08:23:04.996Z,8.73
2019-06-07T08:25:33.395Z,7.40
2019-06-07T08:28:01.766Z,9.67
2019-06-07T08:33:23.964Z,7.33
2019-06-07T08:36:03.584Z,9.50
2019-06-07T08:38:26.693Z,7.00
2019-06-07T08:40:30.539Z,7.60
2019-06-07T08:43:15.091Z,8.33
2019-06-07T08:45:29.168Z,6.50
2019-06-07T08:48:04.403Z,7.17
2019-06-07T08:50:27.650Z,11.00
2019-06-07T08:53:01.065Z,8.30
2019-06-07T08:55:26.168Z,6.80
2019-06-07T08:58:03.359Z,9.47
2019-06-07T09:02:57.456Z,8.47
2019-06-07T09:05:24.852Z,6.40
2019-06-07T09:08:13.367Z,6.40
2019-06-07T09:10:23.328Z,9.77
2019-06-07T09:12:54.419Z,6.37
2019-06-07T09:15:24.077Z,6.40
2019-06-07T09:20:36.364Z,8.80
2019-06-07T09:22:52.070Z,6.53
2019-06-07T09:25:21.668Z,6.70
2019-06-07T09:27:50.414Z,6.63
2019-06-07T09:30:22.073Z,6.93
2019-06-07T09:32:50.458Z,6.17
2019-06-07T09:35:18.861Z,6.47
2019-06-07T09:38:07.699Z,8.30
2019-06-07T09:40:27.326Z,7.90
2019-06-07T09:43:38.255Z,8.43
2019-06-07T09:45:20.639Z,6.20
2019-06-07T09:47:49.017Z,7.47
2019-06-07T09:50:17.396Z,6.77
2019-06-07T09:52:58.071Z,7.13
2019-06-07T09:55:24.221Z,6.67
2019-06-07T09:57:46.065Z,7.67
2019-06-07T10:00:39.289Z,8.40
2019-06-07T10:02:44.500Z,7.40
2019-06-07T10:05:14.309Z,8.97
2019-06-07T10:08:00.112Z,11.10
2019-06-07T10:12:43.107Z,5.97
2019-06-07T10:15:11.484Z,8.10
2019-06-07T10:17:39.958Z,6.90
2019-06-07T10:20:09.744Z,9.03
2019-06-07T10:22:38.257Z,5.67
2019-06-07T10:25:08.329Z,7.47
2019-06-07T10:27:36.707Z,6.87
2019-06-07T10:30:08.406Z,6.43
2019-06-07T10:32:36.841Z,7.27
2019-06-07T10:35:07.672Z,8.37
2019-06-07T10:37:36.415Z,9.13
2019-06-07T10:40:09.264Z,7.27
2019-06-07T10:42:37.864Z,8.97
2019-06-07T10:45:08.346Z,8.07
2019-06-07T10:47:36.932Z,7.57
2019-06-07T10:50:05.965Z,8.73
2019-06-07T10:52:34.497Z,7.57
2019-06-07T10:55:04.468Z,10.27
2019-06-07T10:57:32.958Z,8.37
2019-06-07T11:00:03.333Z,6.40
2019-06-07T11:02:31.577Z,7.53
2019-06-07T11:04:59.951Z,9.07
2019-06-07T11:07:28.354Z,7.93
2019-06-07T11:10:07.438Z,9.70
2019-06-07T11:12:26.856Z,7.80
2019-06-07T11:14:55.249Z,7.97
2019-06-07T11:17:23.687Z,10.40
2019-06-07T11:19:52.120Z,9.40
2019-06-07T11:22:20.537Z,7.30
2019-06-07T11:24:49.080Z,8.53
2019-06-07T11:27:18.969Z,7.10
2019-06-07T11:29:47.525Z,9.97
2019-06-07T11:32:15.921Z,9.10
2019-06-07T11:34:44.317Z,9.40
2019-06-07T11:37:13.793Z,8.07
2019-06-07T11:39:42.754Z,7.27
2019-06-07T11:42:12.072Z,7.63
2019-06-07T11:44:55.815Z,7.90
2019-06-07T11:47:10.613Z,8.03
2019-06-07T11:49:39.008Z,7.90
2019-06-07T11:52:07.401Z,7.60
2019-06-07T11:54:35.828Z,11.07
2019-06-07T11:57:04.556Z,6.90
2019-06-07T11:59:32.998Z,8.57
2019-06-07T12:02:01.494Z,8.37
2019-06-07T12:04:34.939Z,7.47
2019-06-07T12:07:00.158Z,10.20
2019-06-07T12:09:28.703Z,10.33
2019-06-07T12:11:57.099Z,11.07
2019-06-07T12:14:25.481Z,8.80
2019-06-07T12:16:53.897Z,7.67
2019-06-07T12:19:22.305Z,7.03
2019-06-07T12:21:50.712Z,7.23
2019-06-07T12:24:19.802Z,8.77
2019-06-07T12:26:49.150Z,7.73
2019-06-07T12:29:19.112Z,7.50
2019-06-07T12:31:50.140Z,7.07
2019-06-07T12:34:19.511Z,9.33
2019-06-07T12:36:47.955Z,7.33
2019-06-07T12:39:16.346Z,8.00
2019-06-07T12:41:44.773Z,7.13
2019-06-07T12:44:14.513Z,9.67
2019-06-07T12:46:43.061Z,7.53
2019-06-07T12:49:12.869Z,7.43
2019-06-07T12:51:41.475Z,9.43
2019-06-07T12:54:09.838Z,7.97
2019-06-07T12:56:38.251Z,6.37
2019-06-07T12:59:06.658Z,8.77
2019-06-07T13:01:35.034Z,6.73
2019-06-07T13:04:03.455Z,9.37
2019-06-07T13:06:31.844Z,10.57
2019-06-07T13:09:00.264Z,7.03
2019-06-07T13:11:31.617Z,8.67
2019-06-07T13:13:58.722Z,8.83
2019-06-07T13:16:28.409Z,8.57
2019-06-07T13:18:57.017Z,10.27
2019-06-07T13:21:25.410Z,7.63
2019-06-07T13:23:53.832Z,6.87
2019-06-07T13:26:23.072Z,7.43
2019-06-07T13:28:51.838Z,6.73
2019-06-07T13:31:21.063Z,7.03
2019-06-07T13:33:49.703Z,6.40
2019-06-07T13:36:18.169Z,6.73
2019-06-07T13:38:46.618Z,7.20
2019-06-07T13:41:30.211Z,6.73
2019-06-07T13:43:45.103Z,8.30
2019-06-07T13:46:13.509Z,8.43
2019-06-07T13:48:41.889Z,11.03
2019-06-07T13:51:10.289Z,8.93
2019-06-07T13:53:38.693Z,9.63
2019-06-07T13:56:07.100Z,11.07
2019-06-07T13:58:35.524Z,8.07
2019-06-07T14:01:03.890Z,8.47
2019-06-07T14:03:34.047Z,9.03
2019-06-07T14:06:02.331Z,9.10
2019-06-07T14:08:30.770Z,11.83
2019-06-07T14:10:59.170Z,8.10
2019-06-07T14:13:28.099Z,6.90
2019-06-07T14:15:56.571Z,8.53
2019-06-07T14:18:26.330Z,6.13
2019-06-07T14:20:54.867Z,6.53
2019-06-07T14:23:39.063Z,6.27
2019-06-07T14:25:53.294Z,6.17
2019-06-07T14:28:32.241Z,5.40
2019-06-07T14:30:59.166Z,4.73
2019-06-07T14:33:28.748Z,3.70
2019-06-07T14:35:57.644Z,7.13
2019-06-07T14:38:27.280Z,2.97
2019-06-07T14:40:55.835Z,5.40
2019-06-07T14:43:25.112Z,5.07
2019-06-07T14:45:53.779Z,4.87
2019-06-07T14:48:22.222Z,3.73
2019-06-07T14:50:50.668Z,5.50
2019-06-07T14:53:19.255Z,5.07
2019-06-07T14:55:47.675Z,5.07
2019-06-07T14:58:16.075Z,4.57
2019-06-07T15:00:44.973Z,4.77
2019-06-07T15:03:13.383Z,6.70
2019-06-07T15:05:41.785Z,5.93
2019-06-07T15:08:10.339Z,5.30
2019-06-07T15:10:39.273Z,4.83
2019-06-07T15:13:07.834Z,6.60
2019-06-07T15:15:36.241Z,8.30
2019-06-07T15:18:04.620Z,5.27
2019-06-07T15:20:34.083Z,7.27
2019-06-07T15:23:02.628Z,3.27
2019-06-07T15:25:31.216Z,5.07
2019-06-07T15:27:59.686Z,2.53
2019-06-07T15:30:29.486Z,1.87
2019-06-07T15:32:59.755Z,3.63
2019-06-07T15:35:28.161Z,3.27
2019-06-07T15:37:56.549Z,2.50
2019-06-07T15:40:25.057Z,3.63
2019-06-07T15:42:53.499Z,3.77
2019-06-07T15:45:21.832Z,3.63
2019-06-07T15:47:50.473Z,4.10
2019-06-07T15:50:18.864Z,1.73
2019-06-07T15:52:47.303Z,1.93
2019-06-07T15:55:15.705Z,1.70
2019-06-07T15:57:44.126Z,2.37
2019-06-07T16:00:16.577Z,3.73
2019-06-07T16:02:44.940Z,3.40
2019-06-07T16:05:13.419Z,4.30
2019-06-07T16:07:42.867Z,3.60
2019-06-07T16:10:12.021Z,3.70
2019-06-07T16:12:42.088Z,6.30
2019-06-07T16:15:11.231Z,1.93
2019-06-07T16:17:39.654Z,3.90
2019-06-07T16:20:08.085Z,2.60
2019-06-07T16:22:37.602Z,6.10
2019-06-07T16:25:07.471Z,2.80
2019-06-07T16:27:36.744Z,2.00
2019-06-07T16:30:10.105Z,2.30
2019-06-07T16:32:39.357Z,2.20
2019-06-07T16:35:08.341Z,4.17
2019-06-07T16:37:38.190Z,3.60
2019-06-07T16:40:13.906Z,2.97
2019-06-07T16:42:42.892Z,4.57
2019-06-07T16:45:11.731Z,3.50
2019-06-07T16:47:42.476Z,2.90
2019-06-07T16:50:10.851Z,3.33
2019-06-07T16:52:39.282Z,5.00
2019-06-07T16:55:07.703Z,3.43
2019-06-07T16:57:36.686Z,4.30
2019-06-07T17:00:13.318Z,2.03
2019-06-07T17:02:42.287Z,3.93
2019-06-07T17:05:10.814Z,1.47
2019-06-07T17:07:40.314Z,2.23
2019-06-07T17:10:09.294Z,2.03
2019-06-07T17:12:38.526Z,3.90
2019-06-07T17:15:07.951Z,3.73
2019-06-07T17:17:36.362Z,3.63
2019-06-07T17:20:06.490Z,3.53
2019-06-07T17:22:34.921Z,4.90
2019-06-07T17:25:04.190Z,2.50
2019-06-07T17:27:32.587Z,2.17
2019-06-07T17:30:01.096Z,5.40
2019-06-07T17:32:29.548Z,3.47
2019-06-07T17:34:57.959Z,3.57
2019-06-07T17:37:26.333Z,3.97
2019-06-07T17:39:54.742Z,1.87
2019-06-07T17:42:23.141Z,2.37
2019-06-07T17:44:51.625Z,2.23
2019-06-07T17:47:20.053Z,3.87
2019-06-07T17:49:49.679Z,3.17
2019-06-07T17:52:18.497Z,2.27
2019-06-07T17:54:48.006Z,2.33
2019-06-07T17:57:16.464Z,1.73
2019-06-07T17:59:44.841Z,2.07
2019-06-07T18:02:15.536Z,1.43
2019-06-07T18:04:43.400Z,2.20
2019-06-07T18:07:11.783Z,2.73
2019-06-07T18:09:40.207Z,2.37
2019-06-07T18:12:08.612Z,1.67
2019-06-07T18:14:37.006Z,2.17
2019-06-07T18:17:05.405Z,1.10
2019-06-07T18:19:33.809Z,2.00
2019-06-07T18:22:02.200Z,2.97
2019-06-07T18:24:30.596Z,2.17
2019-06-07T18:26:59.003Z,1.83
2019-06-07T18:29:27.391Z,2.63
2019-06-07T18:31:55.802Z,1.80
2019-06-07T18:34:24.300Z,2.47
2019-06-07T18:36:53.148Z,1.60
2019-06-07T18:39:21.504Z,1.63
2019-06-07T18:41:51.778Z,1.90
2019-06-07T18:44:21.797Z,1.43
2019-06-07T18:46:50.187Z,2.00
2019-06-07T18:49:18.576Z,3.00
2019-06-07T18:51:49.670Z,3.70
2019-06-07T18:54:18.104Z,2.20
2019-06-07T18:56:46.788Z,2.43
2019-06-07T18:59:15.247Z,3.33
2019-06-07T19:01:43.675Z,2.40
2019-06-07T19:04:12.077Z,2.43
2019-06-07T19:06:40.485Z,2.70
2019-06-07T19:09:08.978Z,2.10
2019-06-07T19:11:37.861Z,3.23
2019-06-07T19:14:06.247Z,2.00
2019-06-07T19:16:34.675Z,1.57
2019-06-07T19:19:03.079Z,3.50
2019-06-07T19:21:32.468Z,2.37
2019-06-07T19:24:00.928Z,1.63
2019-06-07T19:26:29.338Z,1.40
2019-06-07T19:28:58.786Z,2.60
2019-06-07T19:31:27.291Z,1.80
2019-06-07T19:33:59.367Z,3.10
2019-06-07T19:36:28.115Z,3.13
2019-06-07T19:38:57.843Z,3.03
2019-06-07T19:41:26.468Z,1.50
2019-06-07T19:43:56.116Z,3.70
2019-06-07T19:46:24.696Z,3.03
2019-06-07T19:48:54.320Z,2.37
2019-06-07T19:51:22.903Z,2.33
2019-06-07T19:53:51.320Z,2.67
2019-06-07T19:56:19.726Z,1.73
2019-06-07T19:58:48.151Z,3.10
2019-06-07T20:01:16.589Z,4.03
2019-06-07T20:03:44.959Z,2.00
2019-06-07T20:06:13.367Z,2.03
2019-06-07T20:08:41.768Z,3.60
2019-06-07T20:11:10.572Z,3.27
2019-06-07T20:13:39.089Z,3.83
2019-06-07T20:16:07.508Z,1.50
2019-06-07T20:18:35.896Z,3.07
2019-06-07T20:21:04.962Z,4.50
2019-06-07T20:23:33.515Z,3.20
2019-06-07T20:26:02.503Z,1.80
2019-06-07T20:28:30.980Z,1.10
2019-06-07T20:30:59.739Z,3.03
2019-06-07T20:33:28.151Z,2.33
2019-06-07T20:35:56.645Z,4.57
2019-06-07T20:38:25.052Z,2.70
2019-06-07T20:40:53.457Z,2.90
2019-06-07T20:43:21.885Z,2.27
2019-06-07T20:45:50.287Z,2.47
2019-06-07T20:48:18.697Z,2.40
2019-06-07T20:50:47.358Z,3.37
2019-06-07T20:53:15.773Z,3.13
2019-06-07T20:55:44.187Z,3.47
2019-06-07T20:58:12.587Z,2.70
2019-06-07T21:00:40.996Z,2.17
2019-06-07T21:03:09.715Z,2.90
2019-06-07T21:05:38.213Z,3.07
2019-06-07T21:08:10.669Z,1.77
2019-06-07T21:10:36.652Z,1.47
2019-06-07T21:13:07.999Z,4.67
2019-06-07T21:15:48.465Z,2.50
2019-06-07T21:18:12.053Z,3.77
2019-06-07T21:20:36.724Z,2.30
2019-06-07T21:23:05.123Z,5.23
2019-06-07T21:25:33.529Z,4.93
2019-06-07T21:28:03.028Z,1.03
2019-06-07T21:30:31.565Z,1.47
2019-06-07T21:33:01.258Z,4.00
2019-06-07T21:35:29.735Z,2.90
2019-06-07T21:37:58.157Z,3.30
2019-06-07T21:40:26.569Z,3.33
2019-06-07T21:42:54.976Z,2.03
2019-06-07T21:45:23.425Z,3.77
2019-06-07T21:47:51.875Z,4.37
2019-06-07T21:50:20.393Z,4.20
2019-06-07T21:52:48.826Z,3.00
2019-06-07T21:55:17.216Z,4.20
2019-06-07T21:57:45.634Z,3.63
2019-06-07T22:00:18.900Z,4.23
2019-06-07T22:02:47.281Z,4.03
2019-06-07T22:05:15.770Z,6.03
2019-06-07T22:07:44.173Z,8.20
2019-06-07T22:10:12.667Z,4.07
2019-06-07T22:12:41.041Z,3.97
2019-06-07T22:15:24.038Z,2.30
2019-06-07T22:17:39.756Z,2.00
2019-06-07T22:20:10.806Z,1.60
2019-06-07T22:22:39.430Z,2.97
2019-06-07T22:25:09.218Z,3.47
2019-06-07T22:27:37.802Z,3.33
2019-06-07T22:30:06.738Z,3.57
2019-06-07T22:32:35.164Z,4.23
2019-06-07T22:35:04.803Z,4.13
2019-06-07T22:37:33.207Z,2.90
2019-06-07T22:40:01.702Z,3.27
2019-06-07T22:42:30.528Z,4.27
2019-06-07T22:44:59.450Z,2.73
2019-06-07T22:47:27.905Z,2.50
2019-06-07T22:49:59.149Z,2.53
2019-06-07T22:52:27.557Z,3.93
2019-06-07T22:54:55.982Z,2.77
2019-06-07T22:57:26.051Z,2.60
2019-06-07T22:59:54.481Z,2.27
2019-06-07T23:02:22.875Z,5.20
2019-06-07T23:04:51.277Z,3.87
2019-06-07T23:07:19.690Z,3.13
2019-06-07T23:09:48.124Z,3.63
2019-06-07T23:12:17.575Z,3.03
2019-06-07T23:14:46.209Z,2.77
2019-06-07T23:17:15.750Z,2.93
2019-06-07T23:19:44.334Z,3.43
2019-06-07T23:22:13.780Z,8.80
2019-06-07T23:24:42.210Z,4.30
2019-06-07T23:27:11.205Z,5.17
2019-06-07T23:29:40.779Z,4.80
2019-06-07T23:32:10.475Z,3.60
2019-06-07T23:34:39.716Z,3.67
2019-06-07T23:37:08.097Z,5.10
2019-06-07T23:39:36.518Z,4.13
2019-06-07T23:42:04.920Z,4.77
2019-06-07T23:44:33.343Z,3.37
2019-06-07T23:47:10.837Z,3.67
2019-06-07T23:49:31.830Z,5.43
2019-06-07T23:52:00.231Z,5.53
2019-06-07T23:54:28.631Z,6.23
2019-06-07T23:56:57.040Z,5.03
2019-06-07T23:59:25.484Z,5.50
